Time;durP1;ratioP1;P1;durP2;ratioP2;P2;SDS_P1;SDS_P2;PMS_P1;PMS_P2;Temp;Humidity;BMP_temperature;BMP_pressure;BME280_temperature;BME280_humidity;BME280_pressure;Samples;Min_cycle;Max_cycle;Signal;HPM_P1;HPM_P2
2021/01/31 00:00:38;;;;;;;22.82;18.17;;;;;;;7.80;48.70;97585.73;1802417;79;21200;-70
2021/01/31 00:03:11;;;;;;;23.35;17.90;;;;;;;7.81;48.71;97598.42;1786230;79;21612;-69
2021/01/31 00:05:46;;;;;;;21.60;17.20;;;;;;;7.83;48.72;97591.91;1803716;77;28744;-69
2021/01/31 00:08:17;;;;;;;20.85;17.15;;;;;;;7.80;48.72;97623.22;1783830;79;21138;-69
2021/01/31 00:10:44;;;;;;;22.45;18.73;;;;;;;7.78;48.71;97590.38;1785340;79;21183;-69
2021/01/31 00:16:35;;;;;;;22.55;18.67;;;;;;;7.83;48.74;97552.26;1878412;75;27035;-70
2021/01/31 00:19:03;;;;;;;22.25;18.55;;;;;;;7.84;48.62;97550.42;1825570;77;21064;-70
2021/01/31 00:21:30;;;;;;;22.45;18.10;;;;;;;7.85;48.61;97560.80;1840944;77;21344;-70
2021/01/31 00:23:57;;;;;;;20.43;16.73;;;;;;;7.86;48.57;97585.39;1822474;77;21196;-69
2021/01/31 00:26:25;;;;;;;22.73;19.05;;;;;;;7.85;48.58;97595.16;1832406;77;21567;-71
2021/01/31 00:28:52;;;;;;;21.80;17.67;;;;;;;7.85;48.58;97608.37;1853034;76;21135;-69
2021/01/31 00:31:19;;;;;;;21.90;17.15;;;;;;;7.84;48.56;97613.38;1847742;77;21178;-69
2021/01/31 00:33:47;;;;;;;20.88;17.45;;;;;;;7.84;48.58;97600.64;1821538;77;22837;-70
2021/01/31 00:36:14;;;;;;;21.50;17.02;;;;;;;7.84;48.56;97603.29;1831086;76;21150;-71
2021/01/31 00:38:41;;;;;;;21.33;17.30;;;;;;;7.84;48.56;97609.90;1839627;76;21143;-69
2021/01/31 00:41:09;;;;;;;20.72;17.45;;;;;;;7.84;48.56;97629.23;1845439;76;21212;-71
2021/01/31 00:43:36;;;;;;;21.23;17.42;;;;;;;7.82;48.56;97625.98;1855585;76;21178;-69
2021/01/31 00:46:03;;;;;;;20.50;16.32;;;;;;;7.82;48.56;97635.72;1832365;76;21371;-69
2021/01/31 00:48:31;;;;;;;20.35;16.57;;;;;;;7.82;48.57;97641.02;1828779;77;21624;-70
2021/01/31 00:50:58;;;;;;;22.67;17.62;;;;;;;7.82;48.58;97644.97;1766176;79;21162;-69
2021/01/31 00:53:26;;;;;;;24.50;19.27;;;;;;;7.82;48.56;97651.58;1787745;78;21154;-69
2021/01/31 00:55:56;;;;;;;21.50;16.85;;;;;;;7.80;48.54;97658.42;1776415;79;21598;-68
2021/01/31 00:58:25;;;;;;;20.40;17.00;;;;;;;7.80;48.55;97649.66;1788799;79;21317;-70
2021/01/31 01:00:53;;;;;;;23.27;17.98;;;;;;;7.80;48.55;97654.94;1786633;79;21213;-71
2021/01/31 01:03:20;;;;;;;21.10;17.35;;;;;;;7.80;48.53;97657.09;1777958;79;21182;-71
2021/01/31 01:06:05;;;;;;;20.70;16.27;;;;;;;7.83;48.55;97663.28;1820613;77;26527;-70
2021/01/31 01:08:32;;;;;;;20.72;15.88;;;;;;;7.79;48.55;97662.58;1805136;78;21091;-70
2021/01/31 01:11:00;;;;;;;20.60;17.02;;;;;;;7.78;48.53;97669.67;1813759;78;21193;-70
2021/01/31 01:13:28;;;;;;;19.80;16.87;;;;;;;7.78;48.54;97675.47;1775193;80;21195;-70
2021/01/31 01:15:55;;;;;;;20.10;16.65;;;;;;;7.78;48.53;97671.51;1803927;77;21078;-71
2021/01/31 01:18:23;;;;;;;20.85;17.20;;;;;;;7.77;48.52;97687.88;1802658;77;21110;-71
2021/01/31 01:20:50;;;;;;;21.42;16.62;;;;;;;7.77;48.53;97681.79;1786066;78;21138;-72
2021/01/31 01:23:17;;;;;;;20.85;16.40;;;;;;;7.77;48.53;97679.14;1799159;78;21629;-71
2021/01/31 01:25:45;;;;;;;18.87;15.40;;;;;;;7.76;48.53;97678.83;1790230;78;21186;-70
2021/01/31 01:28:14;;;;;;;20.48;16.32;;;;;;;7.76;48.53;97689.40;1789271;78;21177;-70
2021/01/31 01:30:42;;;;;;;19.32;15.20;;;;;;;7.75;48.51;97692.56;1785883;78;21163;-71
2021/01/31 01:33:09;;;;;;;18.07;15.05;;;;;;;7.76;48.54;97694.69;1796179;78;21142;-71
2021/01/31 01:35:36;;;;;;;18.42;14.53;;;;;;;7.75;48.53;97701.81;1790118;78;21394;-69
2021/01/31 01:38:04;;;;;;;17.82;14.90;;;;;;;7.74;48.51;97700.16;1790606;78;21122;-71
2021/01/31 01:40:35;;;;;;;18.70;15.10;;;;;;;7.74;48.51;97712.06;1788437;78;21172;-71
2021/01/31 01:43:04;;;;;;;18.00;14.65;;;;;;;7.74;48.51;97719.98;1793874;78;21578;-70
2021/01/31 01:45:32;;;;;;;17.42;14.63;;;;;;;7.73;48.49;97722.86;1789209;78;21121;-72
2021/01/31 01:48:13;;;;;;;16.82;14.43;;;;;;;7.73;48.51;97730.27;1786898;78;21220;-71
2021/01/31 01:50:53;;;;;;;17.50;13.05;;;;;;;7.71;48.50;97728.34;1790705;78;21190;-71
2021/01/31 01:53:22;;;;;;;16.65;13.35;;;;;;;7.70;48.53;97730.66;1788816;78;21141;-70
2021/01/31 01:56:06;;;;;;;16.05;13.43;;;;;;;7.68;48.53;97744.06;1792665;78;21189;-71
2021/01/31 01:58:33;;;;;;;17.02;13.62;;;;;;;7.68;48.57;97748.03;1786928;78;21606;-71
2021/01/31 02:01:01;;;;;;;15.13;12.85;;;;;;;7.68;48.54;97748.55;1808176;78;21430;-69
2021/01/31 02:03:31;;;;;;;15.13;12.35;;;;;;;7.67;48.55;97754.34;1808352;78;21129;-70
2021/01/31 02:06:09;;;;;;;17.52;13.00;;;;;;;7.66;48.56;97756.66;1819301;78;21109;-69
2021/01/31 02:08:39;;;;;;;15.65;12.58;;;;;;;7.67;48.54;97763.59;1797220;78;21184;-71
2021/01/31 02:11:09;;;;;;;15.10;11.97;;;;;;;7.66;48.53;97768.55;1797306;78;21246;-71
2021/01/31 02:13:41;;;;;;;14.00;11.70;;;;;;;7.66;48.54;97780.45;1822835;78;21185;-72
2021/01/31 02:16:18;;;;;;;15.18;11.90;;;;;;;7.65;48.56;97790.73;1816089;78;21193;-70
2021/01/31 02:19:12;;;;;;;15.25;12.37;;;;;;;7.64;48.57;97802.30;1805579;78;21157;-70
2021/01/31 02:21:54;;;;;;;13.72;11.73;;;;;;;7.64;48.55;97803.61;1793948;78;21167;-72
2021/01/31 02:25:08;;;;;;;14.87;12.13;;;;;;;7.63;48.55;97811.73;1809464;78;21145;-72
2021/01/31 02:28:02;;;;;;;14.07;11.30;;;;;;;7.61;48.59;97812.44;1817757;78;23582;-74
2021/01/31 02:31:03;;;;;;;12.37;10.90;;;;;;;7.57;48.61;97809.40;1804049;78;21645;-70
2021/01/31 02:33:41;;;;;;;12.60;11.08;;;;;;;7.54;48.68;97809.78;1804323;78;21605;-70
2021/01/31 02:36:21;;;;;;;15.15;11.60;;;;;;;7.52;48.72;97818.41;1825140;78;21653;-70
2021/01/31 02:39:02;;;;;;;12.82;10.75;;;;;;;7.52;48.72;97827.66;1821607;78;21569;-70
2021/01/31 02:41:34;;;;;;;12.75;10.43;;;;;;;7.52;48.71;97836.09;1811291;78;23634;-71
2021/01/31 02:44:05;;;;;;;11.53;9.88;;;;;;;7.51;48.75;97848.47;1800449;78;21987;-71
2021/01/31 02:46:46;;;;;;;10.48;9.13;;;;;;;7.51;48.73;97847.15;1818636;78;21122;-70
2021/01/31 02:49:21;;;;;;;12.18;10.10;;;;;;;7.51;48.72;97848.47;1786409;79;21166;-72
2021/01/31 02:52:08;;;;;;;12.35;10.40;;;;;;;7.51;48.74;97856.39;1814386;78;21174;-71
2021/01/31 02:55:21;;;;;;;11.90;9.45;;;;;;;7.51;48.73;97864.33;1793928;78;21339;-71
2021/01/31 02:58:14;;;;;;;10.28;9.13;;;;;;;7.51;48.74;97866.16;1795535;78;21147;-72
2021/01/31 03:01:15;;;;;;;12.30;9.35;;;;;;;7.48;48.75;97864.73;1795570;78;21618;-72
2021/01/31 03:03:47;;;;;;;10.82;9.73;;;;;;;7.45;48.77;97869.88;1806695;78;21095;-72
2021/01/31 03:06:19;;;;;;;12.00;8.63;;;;;;;7.44;48.81;97879.34;1792027;78;21119;-73
2021/01/31 03:09:05;;;;;;;10.78;8.53;;;;;;;7.44;48.83;97893.36;1785899;79;21206;-73
2021/01/31 03:11:38;;;;;;;9.50;7.80;;;;;;;7.45;48.80;97906.05;1792807;80;21199;-72
2021/01/31 03:14:10;;;;;;;9.98;8.00;;;;;;;7.45;48.78;97915.30;1802062;79;21150;-72
2021/01/31 03:17:00;;;;;;;10.90;9.03;;;;;;;7.44;48.80;97918.97;1812210;79;21641;-71
2021/01/31 03:19:51;;;;;;;9.75;8.35;;;;;;;7.44;48.79;97936.14;1799157;79;21153;-73
2021/01/31 03:22:30;;;;;;;9.73;8.23;;;;;;;7.44;48.81;97954.64;1798500;79;21341;-72
2021/01/31 03:25:01;;;;;;;10.13;8.30;;;;;;;7.42;48.82;97962.75;1814724;79;21178;-72
2021/01/31 03:27:32;;;;;;;9.38;8.38;;;;;;;7.42;48.81;97964.58;1788243;79;21129;-71
2021/01/31 03:30:00;;;;;;;8.38;7.28;;;;;;;7.43;48.81;97976.77;1777989;79;21610;-70
2021/01/31 03:32:38;;;;;;;9.78;8.08;;;;;;;7.43;48.79;97984.70;1785672;79;21203;-71
2021/01/31 03:35:12;;;;;;;9.38;7.78;;;;;;;7.44;48.79;97995.59;1808328;79;21264;-69
2021/01/31 03:38:20;;;;;;;8.18;7.37;;;;;;;7.44;48.77;98006.16;1813289;79;21592;-71
2021/01/31 03:40:52;;;;;;;9.53;7.25;;;;;;;7.44;48.78;98012.25;1799878;79;21126;-71
2021/01/31 03:43:20;;;;;;;8.85;7.15;;;;;;;7.42;48.80;98018.74;1786320;79;21137;-71
2021/01/31 03:46:16;;;;;;;8.75;6.97;;;;;;;7.41;48.80;98023.70;1788648;79;21597;-70
2021/01/31 03:48:59;;;;;;;8.67;7.07;;;;;;;7.45;48.82;98028.41;1815899;77;27652;-71
2021/01/31 03:51:28;;;;;;;8.45;7.53;;;;;;;7.42;48.80;98029.31;1794594;79;21190;-71
2021/01/31 03:53:55;;;;;;;7.85;6.95;;;;;;;7.41;48.78;98036.39;1787921;79;21817;-70
2021/01/31 03:56:28;;;;;;;8.33;6.80;;;;;;;7.41;48.81;98029.80;1795559;79;21146;-72
2021/01/31 03:58:55;;;;;;;9.03;6.70;;;;;;;7.42;48.76;98034.59;1787969;79;20987;-72
2021/01/31 04:01:24;;;;;;;9.80;6.87;;;;;;;7.44;48.77;98039.19;1820041;78;21139;-71
2021/01/31 04:04:06;;;;;;;8.48;6.85;;;;;;;7.43;48.75;98045.45;1814020;78;21103;-71
2021/01/31 04:06:34;;;;;;;7.90;6.58;;;;;;;7.43;48.74;98054.20;1813399;78;21633;-73
2021/01/31 04:09:04;;;;;;;7.75;6.60;;;;;;;7.43;48.74;98054.20;1782955;78;21194;-72
2021/01/31 04:11:42;;;;;;;6.45;5.55;;;;;;;7.43;48.76;98064.77;1789810;78;21101;-72
2021/01/31 04:14:30;;;;;;;6.45;5.75;;;;;;;7.44;48.72;98067.73;1785186;79;21144;-71
2021/01/31 04:16:58;;;;;;;6.90;5.80;;;;;;;7.45;48.72;98079.11;1795137;78;21152;-72
2021/01/31 04:19:25;;;;;;;7.70;6.58;;;;;;;7.44;48.73;98082.78;1803845;78;21497;-73
2021/01/31 04:21:53;;;;;;;6.55;5.55;;;;;;;7.44;48.73;98085.42;1787898;79;21915;-71
2021/01/31 04:24:22;;;;;;;7.72;5.92;;;;;;;7.45;48.72;98084.39;1782293;79;21155;-71
2021/01/31 04:26:49;;;;;;;7.92;6.30;;;;;;;7.45;48.69;98094.45;1791631;79;21190;-71
2021/01/31 04:29:17;;;;;;;7.65;5.72;;;;;;;7.46;48.67;98101.39;1798527;78;21168;-72
2021/01/31 04:31:45;;;;;;;7.33;6.55;;;;;;;7.46;48.69;98101.91;1786461;79;22187;-72
2021/01/31 04:34:12;;;;;;;5.83;5.28;;;;;;;7.47;48.67;98110.13;1786310;79;21653;-71
2021/01/31 04:36:40;;;;;;;6.58;5.55;;;;;;;7.47;48.66;98111.45;1785239;79;21169;-72
2021/01/31 04:39:08;;;;;;;7.40;5.90;;;;;;;7.48;48.63;98123.67;1807195;78;21626;-71
2021/01/31 04:41:40;;;;;;;6.37;5.40;;;;;;;7.47;48.63;98122.86;1785685;78;21146;-75
2021/01/31 04:44:12;;;;;;;6.85;5.62;;;;;;;7.48;48.61;98124.98;1803688;78;21617;-72
2021/01/31 04:46:49;;;;;;;6.78;5.92;;;;;;;7.39;48.59;98124.78;1797824;79;21114;-74
2021/01/31 04:49:37;;;;;;;7.30;6.08;;;;;;;7.48;48.59;98148.77;1801603;79;21177;-72
2021/01/31 04:52:35;;;;;;;7.30;5.78;;;;;;;7.48;48.62;98148.77;1793139;79;21220;-71
2021/01/31 04:55:42;;;;;;;6.08;4.95;;;;;;;7.46;48.60;98156.87;1783635;78;21149;-72
2021/01/31 04:58:17;;;;;;;5.85;5.00;;;;;;;7.45;48.61;98167.12;1732389;82;21672;-71
2021/01/31 05:01:14;;;;;;;6.08;4.97;;;;;;;7.44;48.63;98171.29;1807339;79;21588;-70
2021/01/31 05:03:52;;;;;;;5.97;4.97;;;;;;;7.44;48.66;98177.89;1778783;79;21181;-69
2021/01/31 05:06:20;;;;;;;6.90;5.33;;;;;;;7.43;48.68;98184.98;1787368;79;21119;-70
2021/01/31 05:11:53;;;;;;;6.05;5.30;;;;;;;7.46;48.68;98183.81;1826993;77;29033;-69
2021/01/31 05:14:40;;;;;;;5.65;4.87;;;;;;;7.42;48.70;98189.97;1757353;79;21230;-69
2021/01/31 05:17:08;;;;;;;5.28;4.78;;;;;;;7.40;48.67;98194.62;1801969;79;22007;-69
2021/01/31 05:19:37;;;;;;;6.50;4.92;;;;;;;7.40;48.68;98195.13;1814690;79;21110;-69
2021/01/31 05:22:05;;;;;;;5.47;4.33;;;;;;;7.40;48.69;98206.50;1806957;79;21086;-70
2021/01/31 05:24:33;;;;;;;5.53;4.50;;;;;;;7.41;48.67;98216.56;1791032;79;21229;-70
2021/01/31 05:27:02;;;;;;;6.35;5.20;;;;;;;7.42;48.68;98214.25;1813355;79;21173;-70
2021/01/31 05:29:35;;;;;;;5.60;5.00;;;;;;;7.42;48.66;98230.92;1801948;79;21186;-71
2021/01/31 05:32:13;;;;;;;7.17;5.35;;;;;;;7.42;48.69;98234.88;1791883;79;21804;-69
2021/01/31 05:34:55;;;;;;;5.95;5.15;;;;;;;7.43;48.67;98239.66;1791632;79;21177;-70
2021/01/31 05:37:43;;;;;;;5.87;4.58;;;;;;;7.42;48.65;98241.48;1785913;79;21597;-71
2021/01/31 05:40:15;;;;;;;7.10;5.80;;;;;;;7.42;48.65;98255.20;1802299;79;21169;-71
2021/01/31 05:42:44;;;;;;;6.12;4.47;;;;;;;7.41;48.67;98264.13;1808301;79;26403;-71
2021/01/31 05:45:23;;;;;;;6.10;5.33;;;;;;;7.41;48.68;98270.22;1800179;79;21154;-73
2021/01/31 05:47:51;;;;;;;6.45;5.28;;;;;;;7.42;48.67;98265.77;1808425;79;21618;-72
2021/01/31 05:50:40;;;;;;;7.08;5.20;;;;;;;7.43;48.65;98272.68;1809464;79;21145;-73
2021/01/31 05:53:36;;;;;;;5.83;4.95;;;;;;;7.43;48.64;98274.81;1797173;79;21210;-73
2021/01/31 05:56:25;;;;;;;6.25;4.92;;;;;;;7.43;48.63;98280.61;1816425;79;22826;-73
2021/01/31 05:59:04;;;;;;;6.58;5.47;;;;;;;7.41;48.64;98282.62;1808248;79;21154;-73
2021/01/31 06:01:32;;;;;;;6.08;5.15;;;;;;;7.41;48.65;98287.90;1809381;79;21189;-73
2021/01/31 06:04:13;;;;;;;6.62;5.30;;;;;;;7.40;48.67;98290.24;1790589;79;21126;-69
2021/01/31 06:06:45;;;;;;;5.95;4.92;;;;;;;7.40;48.68;98298.98;1779287;79;21134;-68
2021/01/31 06:09:37;;;;;;;6.05;4.95;;;;;;;7.41;48.67;98301.11;1808063;79;21362;-69
2021/01/31 06:12:10;;;;;;;6.53;5.83;;;;;;;7.41;48.67;98304.56;1802905;79;21118;-72
2021/01/31 06:14:41;;;;;;;5.28;4.78;;;;;;;7.41;48.68;98315.64;1811281;79;21474;-71
2021/01/31 06:17:22;;;;;;;6.20;5.40;;;;;;;7.32;48.68;98302.20;1816169;79;21585;-71
2021/01/31 06:19:49;;;;;;;6.10;4.87;;;;;;;7.42;48.65;98321.27;1809071;79;21149;-71
2021/01/31 06:22:17;;;;;;;7.17;5.90;;;;;;;7.41;48.66;98325.70;1807327;79;22715;-72
2021/01/31 06:24:48;;;;;;;5.95;4.85;;;;;;;7.43;48.63;98341.38;1756022;79;21142;-70
2021/01/31 06:27:31;;;;;;;6.23;5.63;;;;;;;7.43;48.62;98343.52;1813757;79;21109;-71
2021/01/31 06:30:13;;;;;;;6.03;5.40;;;;;;;7.45;48.61;98353.91;1794217;79;21190;-70
2021/01/31 06:32:41;;;;;;;6.22;5.37;;;;;;;7.45;48.61;98357.87;1811995;79;21193;-71
2021/01/31 06:35:12;;;;;;;6.10;5.37;;;;;;;7.45;48.62;98361.83;1811542;79;21209;-71
2021/01/31 06:38:23;;;;;;;5.87;5.28;;;;;;;7.45;48.61;98367.12;1805764;79;21213;-71
2021/01/31 06:41:17;;;;;;;6.15;5.03;;;;;;;7.46;48.59;98366.12;1809187;79;21166;-75
2021/01/31 06:44:01;;;;;;;7.20;4.92;;;;;;;7.45;48.63;98373.73;1802732;79;21134;-73
2021/01/31 06:46:44;;;;;;;6.40;4.75;;;;;;;7.45;48.61;98385.61;1798501;79;21157;-75
2021/01/31 06:49:29;;;;;;;5.72;5.10;;;;;;;7.43;48.62;98383.15;1807677;79;22188;-73
2021/01/31 06:52:23;;;;;;;5.95;5.05;;;;;;;7.43;48.63;98381.83;1780244;79;21158;-73
2021/01/31 06:55:11;;;;;;;5.30;4.40;;;;;;;7.44;48.64;98383.48;1797163;79;21177;-73
2021/01/31 06:58:04;;;;;;;5.67;4.90;;;;;;;7.44;48.65;98390.59;1805576;79;21177;-74
2021/01/31 07:01:09;;;;;;;6.20;4.87;;;;;;;7.44;48.64;98394.56;1803051;79;21621;-73
2021/01/31 07:04:03;;;;;;;6.47;5.12;;;;;;;7.45;48.68;98397.50;1813580;79;21423;-72
2021/01/31 07:07:08;;;;;;;6.55;5.60;;;;;;;7.45;48.70;98394.86;1812581;79;21185;-73
2021/01/31 07:10:05;;;;;;;6.40;4.87;;;;;;;7.45;48.68;98397.50;1820952;78;21118;-74
2021/01/31 07:13:10;;;;;;;5.95;5.10;;;;;;;7.45;48.70;98400.15;1805463;79;21173;-73
2021/01/31 07:16:01;;;;;;;5.75;5.05;;;;;;;7.46;48.71;98403.13;1815768;78;21533;-71
2021/01/31 07:18:32;;;;;;;6.05;4.83;;;;;;;7.45;48.72;98406.24;1784478;80;21378;-71
2021/01/31 07:20:59;;;;;;;6.83;5.15;;;;;;;7.47;48.74;98418.80;1812477;79;21149;-71
2021/01/31 07:23:30;;;;;;;7.37;5.92;;;;;;;7.48;48.71;98424.39;1814422;79;21164;-70
2021/01/31 07:26:16;;;;;;;6.22;5.50;;;;;;;7.50;48.69;98429.50;1809608;79;21118;-71
2021/01/31 07:28:44;;;;;;;7.28;5.65;;;;;;;7.53;48.66;98433.59;1798425;79;21079;-71
2021/01/31 07:31:35;;;;;;;7.72;5.15;;;;;;;7.55;48.66;98432.91;1814317;79;21202;-71
2021/01/31 07:34:13;;;;;;;6.80;5.12;;;;;;;7.56;48.64;98441.99;1806138;79;21166;-71
2021/01/31 07:37:06;;;;;;;6.83;5.25;;;;;;;7.58;48.58;98441.81;1775773;79;21118;-71
2021/01/31 07:39:41;;;;;;;8.03;5.60;;;;;;;7.61;48.58;98449.37;1787104;79;21599;-71
2021/01/31 07:42:08;;;;;;;5.70;5.05;;;;;;;7.63;48.58;98452.65;1811409;79;21165;-71
2021/01/31 07:44:36;;;;;;;6.92;5.25;;;;;;;7.64;48.54;98452.47;1810034;79;23516;-71
2021/01/31 07:47:04;;;;;;;6.17;5.17;;;;;;;7.68;48.50;98463.00;1795384;79;21559;-72
2021/01/31 07:50:00;;;;;;;7.30;5.60;;;;;;;7.71;48.48;98461.84;1798544;79;21192;-70
2021/01/31 07:52:46;;;;;;;5.90;4.95;;;;;;;7.73;48.42;98467.77;1798971;79;21150;-71
2021/01/31 07:55:37;;;;;;;6.72;5.53;;;;;;;7.75;48.39;98477.66;1807335;79;21086;-73
2021/01/31 07:58:27;;;;;;;6.60;5.30;;;;;;;7.77;48.38;98485.41;1816444;79;21197;-71
2021/01/31 08:00:55;;;;;;;7.25;5.55;;;;;;;7.79;48.32;98484.22;1797781;79;21167;-71
2021/01/31 08:03:33;;;;;;;6.87;5.60;;;;;;;7.80;48.34;98487.20;1795360;79;21142;-71
2021/01/31 08:06:06;;;;;;;6.87;5.25;;;;;;;7.84;48.40;98496.41;1811373;79;21166;-71
2021/01/31 08:08:53;;;;;;;6.35;5.42;;;;;;;7.87;48.74;98503.15;1799289;79;21148;-71
2021/01/31 08:11:38;;;;;;;6.37;4.97;;;;;;;7.90;48.82;98513.85;1785379;78;21357;-72
2021/01/31 08:14:08;;;;;;;5.67;5.05;;;;;;;7.93;48.85;98515.64;1790733;78;21170;-70
2021/01/31 08:16:50;;;;;;;8.03;5.87;;;;;;;7.96;48.76;98523.70;1769174;79;21173;-69
2021/01/31 08:19:27;;;;;;;5.97;5.15;;;;;;;7.97;48.72;98528.81;1791809;78;21154;-73
2021/01/31 08:22:06;;;;;;;6.97;5.17;;;;;;;8.00;48.66;98533.75;1801311;78;21658;-73
2021/01/31 08:25:00;;;;;;;6.17;5.58;;;;;;;8.04;48.57;98539.51;1785951;79;21365;-73
2021/01/31 08:27:54;;;;;;;7.45;5.60;;;;;;;8.06;48.54;98538.83;1803507;78;21271;-72
2021/01/31 08:30:35;;;;;;;6.72;5.60;;;;;;;8.07;48.46;98538.65;1813012;78;26145;-72
2021/01/31 08:33:26;;;;;;;6.00;5.20;;;;;;;8.09;48.42;98539.77;1798008;78;21153;-73
2021/01/31 08:36:22;;;;;;;8.25;6.33;;;;;;;8.12;48.37;98544.70;1796566;78;21121;-70
2021/01/31 08:38:52;;;;;;;7.12;5.40;;;;;;;8.14;48.30;98552.47;1769039;78;22384;-70
2021/01/31 08:41:40;;;;;;;6.75;5.33;;;;;;;8.17;48.25;98556.05;1782795;78;21176;-71
2021/01/31 08:44:16;;;;;;;6.28;5.53;;;;;;;8.19;48.21;98554.89;1816818;78;21511;-71
2021/01/31 08:47:00;;;;;;;6.33;5.15;;;;;;;8.23;48.12;98549.55;1807542;79;21158;-71
2021/01/31 08:49:28;;;;;;;;;;;;;;;8.28;48.08;98558.25;1791335;79;21197;-72
2021/01/31 08:52:02;;;;;;;5.58;4.97;;;;;;;8.33;47.98;98565.16;1808317;79;21207;-71
2021/01/31 08:54:29;;;;;;;6.40;5.03;;;;;;;8.32;48.06;98570.63;1797543;79;21133;-71
2021/01/31 08:57:01;;;;;;;5.97;5.37;;;;;;;8.40;48.03;98578.47;1780215;80;21215;-72
2021/01/31 08:59:48;;;;;;;6.62;5.53;;;;;;;8.48;48.00;98576.27;1798395;79;21846;-72
2021/01/31 09:02:22;;;;;;;6.92;5.28;;;;;;;8.58;47.96;98580.80;1791169;79;21151;-71
2021/01/31 09:04:56;;;;;;;7.50;5.37;;;;;;;8.70;47.87;98586.45;1794848;79;22174;-71
2021/01/31 09:07:34;;;;;;;6.33;5.22;;;;;;;8.80;47.78;98592.27;1807352;78;21126;-70
2021/01/31 09:10:32;;;;;;;6.60;5.12;;;;;;;8.93;47.63;98592.94;1800883;78;21244;-72
2021/01/31 09:13:28;;;;;;;6.60;5.35;;;;;;;9.07;47.50;98589.94;1749941;81;21139;-71
2021/01/31 09:16:19;;;;;;;5.92;5.17;;;;;;;9.20;47.37;98584.28;1740801;81;21137;-70
2021/01/31 09:18:46;;;;;;;5.78;4.15;;;;;;;9.35;47.35;98584.72;1745000;81;21401;-71
2021/01/31 09:21:27;;;;;;;5.87;5.28;;;;;;;9.50;47.20;98586.81;1744712;81;21607;-71
2021/01/31 09:24:02;;;;;;;5.25;4.62;;;;;;;9.62;47.12;98592.45;1736668;81;21651;-72
2021/01/31 09:26:30;;;;;;;6.12;5.03;;;;;;;9.77;46.98;98598.99;1730055;81;21551;-70
2021/01/31 09:28:57;;;;;;;4.95;4.45;;;;;;;9.89;46.86;98604.59;1748555;81;21119;-73
2021/01/31 09:31:28;;;;;;;7.10;5.15;;;;;;;10.02;46.72;98611.34;1749457;81;21543;-72
2021/01/31 09:33:59;;;;;;;6.12;4.92;;;;;;;10.13;46.62;98612.14;1753267;81;21179;-72
2021/01/31 09:36:34;;;;;;;5.00;4.37;;;;;;;10.25;46.47;98613.76;1745661;81;22348;-74
2021/01/31 09:39:09;;;;;;;6.25;5.05;;;;;;;10.44;46.66;98617.59;1781752;79;28344;-73
2021/01/31 09:41:37;;;;;;;6.53;4.92;;;;;;;10.54;46.49;98625.21;1804487;77;21213;-72
2021/01/31 09:44:06;;;;;;;5.25;4.45;;;;;;;10.66;46.24;98627.63;1801827;77;21377;-71
2021/01/31 09:46:34;;;;;;;5.95;4.17;;;;;;;10.76;46.05;98625.45;1804952;77;21156;-73
2021/01/31 09:49:21;;;;;;;5.55;4.58;;;;;;;10.87;45.88;98639.19;1805590;77;21410;-73
2021/01/31 09:51:49;;;;;;;5.00;4.22;;;;;;;10.96;45.83;98643.33;1787428;79;21134;-73
2021/01/31 09:54:22;;;;;;;4.92;4.22;;;;;;;11.08;45.89;98645.72;1785694;79;21611;-74
2021/01/31 09:56:55;;;;;;;4.80;3.92;;;;;;;11.20;45.86;98645.48;1759651;79;22103;-76
2021/01/31 09:59:33;;;;;;;4.58;3.80;;;;;;;11.36;45.54;98648.80;1755196;79;21221;-72
2021/01/31 10:02:09;;;;;;;4.67;3.75;;;;;;;11.48;45.17;98641.88;1806249;78;21155;-71
2021/01/31 10:04:41;;;;;;;4.80;4.12;;;;;;;11.63;44.99;98653.69;1805144;77;21167;-70
2021/01/31 10:07:14;;;;;;;5.15;4.15;;;;;;;11.76;44.79;98651.54;1784527;79;21366;-72
2021/01/31 10:09:47;;;;;;;4.55;3.95;;;;;;;11.91;44.61;98655.38;1764308;79;21360;-76
2021/01/31 10:12:32;;;;;;;4.55;4.00;;;;;;;12.05;44.46;98655.69;1784470;79;21231;-74
2021/01/31 10:15:05;;;;;;;4.47;3.62;;;;;;;12.20;44.27;98654.98;1785303;79;21624;-70
2021/01/31 10:17:44;;;;;;;;;;;;;;;12.39;44.18;98656.00;1775360;79;21175;-78
2021/01/31 10:20:37;;;;;;;5.05;3.55;;;;;;;12.52;44.00;98655.70;1767336;79;20282;-77
2021/01/31 10:23:13;;;;;;;4.58;3.65;;;;;;;12.61;43.99;98654.42;1759969;79;21367;-73
2021/01/31 10:25:45;;;;;;;4.28;3.65;;;;;;;12.78;43.80;98658.80;1792962;79;21146;-74
2021/01/31 10:28:13;;;;;;;3.60;3.08;;;;;;;12.96;43.69;98661.64;1789243;77;21193;-76
2021/01/31 10:30:48;;;;;;;4.53;3.70;;;;;;;13.12;43.50;98663.53;1786992;79;21142;-75
2021/01/31 10:33:48;;;;;;;4.15;3.40;;;;;;;13.27;43.24;98664.09;1805788;77;21150;-75
2021/01/31 10:36:37;;;;;;;4.60;3.42;;;;;;;13.42;43.09;98666.50;1790249;79;21193;-76
2021/01/31 10:39:20;;;;;;;4.65;3.77;;;;;;;13.56;42.94;98676.61;1769754;80;21181;-76
2021/01/31 10:41:48;;;;;;;4.03;2.95;;;;;;;13.72;42.83;98680.09;1750725;80;21152;-76
2021/01/31 10:44:25;;;;;;;3.47;2.95;;;;;;;13.89;42.60;98679.08;1760852;80;21595;-76
2021/01/31 10:46:53;;;;;;;3.20;2.90;;;;;;;14.04;42.56;98684.61;1779312;80;21346;-74
2021/01/31 10:49:21;;;;;;;3.92;3.22;;;;;;;14.21;42.46;98688.39;1753241;79;21200;-75
2021/01/31 10:51:48;;;;;;;3.95;3.33;;;;;;;14.37;42.23;98683.05;1745844;80;21211;-75
2021/01/31 10:54:17;;;;;;;3.10;2.75;;;;;;;14.52;42.09;98690.18;1760545;80;21152;-75
2021/01/31 10:56:45;;;;;;;3.60;3.05;;;;;;;14.65;42.01;98691.95;1768746;80;21147;-75
2021/01/31 10:59:13;;;;;;;3.58;2.75;;;;;;;14.77;41.90;98689.37;1757219;80;21655;-75
2021/01/31 11:01:46;;;;;;;3.22;2.92;;;;;;;14.88;41.85;98690.51;1760342;79;21199;-75
2021/01/31 11:04:14;;;;;;;3.45;2.92;;;;;;;14.98;41.83;98701.50;1756949;80;21164;-75
2021/01/31 11:06:46;;;;;;;3.77;2.58;;;;;;;15.07;41.58;98702.84;1772805;79;21139;-75
2021/01/31 11:09:16;;;;;;;2.95;2.65;;;;;;;15.19;41.47;98708.80;1734294;80;21157;-75
2021/01/31 11:11:44;;;;;;;2.90;2.62;;;;;;;15.26;41.42;98714.87;1753800;80;21194;-75
2021/01/31 11:14:13;;;;;;;2.20;1.98;;;;;;;15.36;41.24;98704.48;1749100;80;22873;-74
2021/01/31 11:16:40;;;;;;;3.20;2.50;;;;;;;15.46;41.62;98707.96;1782622;80;21186;-74
2021/01/31 11:19:08;;;;;;;3.12;2.60;;;;;;;15.62;41.88;98707.86;1777479;80;21546;-75
2021/01/31 11:21:35;;;;;;;2.65;2.37;;;;;;;15.86;41.79;98710.15;1759028;80;21183;-75
2021/01/31 11:24:04;;;;;;;3.02;2.58;;;;;;;16.21;41.49;98712.92;1783194;80;21131;-74
2021/01/31 11:26:31;;;;;;;3.70;2.55;;;;;;;16.63;41.04;98718.23;1760186;80;21611;-74
2021/01/31 11:28:58;;;;;;;2.90;2.60;;;;;;;17.05;40.52;98714.61;1783398;80;21126;-75
2021/01/31 11:31:26;;;;;;;2.87;2.58;;;;;;;17.41;39.92;98718.87;1750492;80;21657;-76
2021/01/31 11:33:55;;;;;;;3.45;2.90;;;;;;;17.71;39.35;98712.45;1782831;80;21190;-74
2021/01/31 11:36:23;;;;;;;2.80;2.50;;;;;;;17.98;38.95;98717.28;1742501;80;21623;-74
2021/01/31 11:38:51;;;;;;;3.02;2.67;;;;;;;18.12;38.58;98718.63;1778489;80;21364;-74
2021/01/31 11:41:18;;;;;;;2.90;2.42;;;;;;;18.22;38.26;98725.51;1756256;80;21120;-75
2021/01/31 11:43:46;;;;;;;2.70;2.50;;;;;;;18.21;37.93;98729.23;1793888;78;21150;-75
2021/01/31 11:46:13;;;;;;;2.70;2.50;;;;;;;18.13;37.81;98730.98;1758639;80;21196;-75
2021/01/31 11:48:41;;;;;;;3.10;2.80;;;;;;;17.99;37.85;98733.16;1786212;78;21174;-74
2021/01/31 11:51:08;;;;;;;2.67;2.40;;;;;;;17.83;38.00;98737.41;1764610;80;22293;-73
2021/01/31 11:53:36;;;;;;;2.30;2.10;;;;;;;17.65;38.13;98738.42;1780794;80;21478;-74
2021/01/31 11:56:04;;;;;;;2.67;2.37;;;;;;;17.47;38.35;98736.70;1766320;79;21144;-74
2021/01/31 11:58:31;;;;;;;2.85;2.55;;;;;;;17.29;38.50;98738.22;1786210;80;21201;-73
2021/01/31 12:00:59;;;;;;;3.17;2.50;;;;;;;17.10;38.82;98738.35;1765632;80;21577;-73
2021/01/31 12:03:26;;;;;;;2.75;2.47;;;;;;;16.95;38.97;98743.37;1767174;80;21235;-75
2021/01/31 12:05:54;;;;;;;2.40;2.20;;;;;;;16.79;39.15;98748.08;1764646;80;21147;-73
2021/01/31 12:08:22;;;;;;;2.50;2.30;;;;;;;16.64;39.37;98748.53;1777272;80;21167;-74
2021/01/31 12:10:49;;;;;;;3.12;2.60;;;;;;;16.54;39.49;98753.13;1750415;80;21190;-73
2021/01/31 12:13:18;;;;;;;3.25;2.15;;;;;;;16.45;39.59;98753.16;1758560;80;21652;-74
2021/01/31 12:15:46;;;;;;;3.08;2.47;;;;;;;16.45;39.57;98753.16;1747871;80;21507;-73
2021/01/31 12:18:15;;;;;;;2.67;2.47;;;;;;;16.50;39.52;98762.15;1767285;80;21158;-74
2021/01/31 12:20:42;;;;;;;3.15;2.37;;;;;;;16.60;39.47;98760.23;1744873;80;21191;-73
2021/01/31 12:23:09;;;;;;;2.70;2.50;;;;;;;16.78;39.35;98766.02;1786193;80;21150;-73